VTSE/CJM METAR and TAF weather

Enter ICAO airport designator
Station Type Date Time Source
VTSE METAR 2021/03/04 11:00 UTC NOAA

VTSE 041100Z 11008KT 070V150 9999 SCT020 29/25 Q1011 NOSIG


Station Type Date Time Source
VTSE Decoded METAR 2021/03/04 11:00 UTC NOAA

Station name not available
Mar 04, 2021 - 06:00 AM EST / 2021.03.04 1100 UTC
Wind: from the ESE (110 degrees) at 9 MPH (8 KT) (direction variable):0
Visibility: greater than 7 mile(s):0
Sky conditions: partly cloudy
Temperature: 84 F (29 C)
Dew Point: 77 F (25 C)
Relative Humidity: 79%
Pressure (altimeter): 29.85 in. Hg (1011 hPa)
ob: VTSE 041100Z 11008KT 070V150 9999 SCT020 29/25 Q1011 NOSIG
cycle: 11

Station Type Date Time Source
VTSE TAF 2021/03/04 18:00 UTC NOAA

TAF VTSE 041700Z 0418/0518 11006KT 9999 SCT020

Example: see airport list